Time;durP1;ratioP1;P1;durP2;ratioP2;P2;SDS_P1;SDS_P2;PMS_P1;PMS_P2;Temp;Humidity;BMP_temperature;BMP_pressure;BME280_temperature;BME280_humidity;BME280_pressure;Samples;Min_cycle;Max_cycle;Signal;HPM_P1;HPM_P2
2024/02/01 00:00:15;;;;;;;;;;;17.60;45.40;;;;;;1581020;74;696;-72
2024/02/01 00:02:17;;;;;;;;;;;17.60;45.40;;;;;;1568988;74;1135;-72
2024/02/01 00:04:19;;;;;;;;;;;17.60;45.40;;;;;;1568236;74;669;-73
2024/02/01 00:06:21;;;;;;;;;;;17.60;45.40;;;;;;1570196;74;697;-73
2024/02/01 00:08:23;;;;;;;;;;;17.60;45.40;;;;;;1577197;74;680;-73
2024/02/01 00:10:25;;;;;;;;;;;17.60;45.40;;;;;;1580081;74;1928;-72
2024/02/01 00:12:27;;;;;;;;;;;17.60;45.40;;;;;;1571416;74;1148;-72
2024/02/01 00:14:29;;;;;;;;;;;17.60;45.40;;;;;;1572382;74;723;-73
2024/02/01 00:16:31;;;;;;;;;;;17.60;45.40;;;;;;1577155;74;720;-70
2024/02/01 00:18:32;;;;;;;;;;;17.60;45.40;;;;;;1573369;74;699;-72
2024/02/01 00:20:35;;;;;;;;;;;17.60;45.40;;;;;;1572272;74;618;-72
2024/02/01 00:22:37;;;;;;;;;;;17.60;45.40;;;;;;1567306;74;1183;-72
2024/02/01 00:24:39;;;;;;;;;;;17.60;45.40;;;;;;1574670;74;574;-73
2024/02/01 00:26:41;;;;;;;;;;;17.60;45.40;;;;;;1574051;74;746;-73
2024/02/01 00:28:43;;;;;;;;;;;17.60;45.40;;;;;;1570041;74;744;-74
2024/02/01 00:30:45;;;;;;;;;;;17.60;45.40;;;;;;1572821;74;1946;-72
2024/02/01 00:32:46;;;;;;;;;;;17.60;45.40;;;;;;1569535;74;1180;-73
2024/02/01 00:34:48;;;;;;;;;;;17.70;45.40;;;;;;1571332;74;623;-71
2024/02/01 00:36:50;;;;;;;;;;;17.60;45.40;;;;;;1564833;74;576;-73
2024/02/01 00:38:52;;;;;;;;;;;17.70;45.40;;;;;;1563579;74;794;-73
2024/02/01 00:40:54;;;;;;;;;;;17.60;45.40;;;;;;1572472;74;603;-71
2024/02/01 00:42:56;;;;;;;;;;;17.60;45.30;;;;;;1565523;74;1164;-72
2024/02/01 00:44:58;;;;;;;;;;;17.60;45.40;;;;;;1575384;74;720;-74
2024/02/01 00:47:00;;;;;;;;;;;17.70;45.40;;;;;;1568379;74;668;-72
2024/02/01 00:49:02;;;;;;;;;;;17.60;45.30;;;;;;1567685;74;636;-71
2024/02/01 00:51:04;;;;;;;;;;;17.70;45.40;;;;;;1574051;74;1930;-72
2024/02/01 00:53:06;;;;;;;;;;;17.60;45.40;;;;;;1570721;74;1122;-70
2024/02/01 00:55:08;;;;;;;;;;;17.70;45.40;;;;;;1569408;74;906;-71
2024/02/01 00:57:10;;;;;;;;;;;17.60;45.30;;;;;;1564831;74;612;-72
2024/02/01 00:59:11;;;;;;;;;;;17.60;45.30;;;;;;1567343;74;604;-71
2024/02/01 01:01:13;;;;;;;;;;;17.60;45.30;;;;;;1571440;74;675;-74
2024/02/01 01:03:15;;;;;;;;;;;17.60;45.30;;;;;;1575206;74;1072;-71
2024/02/01 01:05:17;;;;;;;;;;;17.70;45.40;;;;;;1573762;74;750;-71
2024/02/01 01:07:19;;;;;;;;;;;17.60;45.40;;;;;;1570417;74;708;-72
2024/02/01 01:09:21;;;;;;;;;;;17.70;45.40;;;;;;1571722;74;638;-70
2024/02/01 01:11:23;;;;;;;;;;;17.60;45.40;;;;;;1572041;74;1938;-72
2024/02/01 01:13:25;;;;;;;;;;;17.60;45.30;;;;;;1567667;74;1170;-72
2024/02/01 01:15:26;;;;;;;;;;;17.70;45.40;;;;;;1566857;74;580;-73
2024/02/01 01:17:28;;;;;;;;;;;17.70;45.40;;;;;;1575870;74;745;-72
2024/02/01 01:19:30;;;;;;;;;;;17.60;45.20;;;;;;1581457;74;729;-72
2024/02/01 01:21:32;;;;;;;;;;;17.60;45.30;;;;;;1569989;74;1131;-72
2024/02/01 01:23:34;;;;;;;;;;;17.60;45.30;;;;;;1566269;74;727;-72
2024/02/01 01:25:36;;;;;;;;;;;17.70;45.30;;;;;;1571824;74;631;-73
2024/02/01 01:27:38;;;;;;;;;;;17.70;45.40;;;;;;1577320;74;677;-73
2024/02/01 01:29:39;;;;;;;;;;;17.60;45.30;;;;;;1569563;74;1554;-71
2024/02/01 01:31:42;;;;;;;;;;;17.60;45.30;;;;;;1560731;74;1950;-72
2024/02/01 01:33:44;;;;;;;;;;;17.60;45.30;;;;;;1569009;74;716;-70
2024/02/01 01:35:46;;;;;;;;;;;17.60;45.30;;;;;;1569392;74;792;-73
2024/02/01 01:37:48;;;;;;;;;;;17.60;45.20;;;;;;1571370;74;742;-69
2024/02/01 01:39:50;;;;;;;;;;;17.70;45.30;;;;;;1579468;74;679;-72
2024/02/01 01:41:52;;;;;;;;;;;17.60;45.20;;;;;;1566685;74;1193;-70
2024/02/01 01:43:53;;;;;;;;;;;17.60;45.20;;;;;;1570602;74;637;-72
2024/02/01 01:46:07;;;;;;;;;;;17.60;45.30;;;;;;1568658;74;689;-71
2024/02/01 01:48:05;;;;;;;;;;;17.70;45.40;;;;;;1575753;74;1497;-72
2024/02/01 01:50:08;;;;;;;;;;;17.60;45.30;;;;;;1578017;74;779;-71
2024/02/01 01:52:10;;;;;;;;;;;17.70;45.30;;;;;;1577771;74;1934;-72
2024/02/01 01:54:11;;;;;;;;;;;17.60;45.30;;;;;;1572288;74;699;-72
2024/02/01 01:56:13;;;;;;;;;;;17.60;45.30;;;;;;1568931;74;719;-71
2024/02/01 01:58:15;;;;;;;;;;;17.70;45.30;;;;;;1572462;74;688;-68
2024/02/01 02:00:17;;;;;;;;;;;17.70;45.40;;;;;;1583934;74;773;-69
2024/02/01 02:02:19;;;;;;;;;;;17.60;45.30;;;;;;1568275;74;1103;-70
2024/02/01 02:04:21;;;;;;;;;;;17.70;45.30;;;;;;1573972;74;741;-68
2024/02/01 02:06:23;;;;;;;;;;;17.60;45.20;;;;;;1572936;74;693;-71
2024/02/01 02:08:24;;;;;;;;;;;17.60;45.20;;;;;;1574593;74;647;-71
2024/02/01 02:10:27;;;;;;;;;;;17.70;45.30;;;;;;1571627;74;633;-72
2024/02/01 02:12:29;;;;;;;;;;;17.60;45.20;;;;;;1561126;74;1926;-69
2024/02/01 02:14:31;;;;;;;;;;;17.60;45.20;;;;;;1573170;74;680;-71
2024/02/01 02:16:36;;;;;;;;;;;17.60;45.20;;;;;;1568310;74;648;-71
2024/02/01 02:18:36;;;;;;;;;;;17.60;45.20;;;;;;1572657;74;1135;-71
2024/02/01 02:20:42;;;;;;;;;;;17.60;45.20;;;;;;1576717;74;729;-69
2024/02/01 02:22:46;;;;;;;;;;;17.70;45.40;;;;;;1573120;74;1157;-70
2024/02/01 02:24:47;;;;;;;;;;;17.60;45.20;;;;;;1570647;74;1324;-70
2024/02/01 02:26:49;;;;;;;;;;;17.70;45.30;;;;;;1571136;74;779;-70
2024/02/01 02:28:51;;;;;;;;;;;17.20;45.00;;;;;;1570553;74;662;-72
2024/02/01 02:30:55;;;;;;;;;;;17.50;45.30;;;;;;1571322;74;1426;-71
2024/02/01 02:32:57;;;;;;;;;;;17.60;45.30;;;;;;1573873;74;1915;-71
2024/02/01 02:34:58;;;;;;;;;;;17.60;45.30;;;;;;1577447;74;633;-70
2024/02/01 02:37:00;;;;;;;;;;;17.60;45.30;;;;;;1564943;74;627;-70
2024/02/01 02:39:02;;;;;;;;;;;17.60;45.30;;;;;;1569961;74;574;-69
2024/02/01 02:41:04;;;;;;;;;;;17.60;45.30;;;;;;1574686;74;749;-69
2024/02/01 02:43:06;;;;;;;;;;;17.60;45.30;;;;;;1566620;74;1151;-71
2024/02/01 02:45:08;;;;;;;;;;;17.60;45.30;;;;;;1570896;74;688;-69
2024/02/01 02:47:11;;;;;;;;;;;17.60;45.20;;;;;;1565768;74;746;-70
2024/02/01 02:49:13;;;;;;;;;;;17.60;45.30;;;;;;1577776;74;716;-71
2024/02/01 02:51:15;;;;;;;;;;;17.60;45.20;;;;;;1572302;74;1903;-70
2024/02/01 02:53:17;;;;;;;;;;;17.60;45.20;;;;;;1544684;75;1131;-69
2024/02/01 02:55:19;;;;;;;;;;;17.60;45.20;;;;;;1573923;74;715;-70
2024/02/01 02:57:21;;;;;;;;;;;17.60;45.20;;;;;;1562980;74;707;-72
2024/02/01 02:59:23;;;;;;;;;;;17.70;45.30;;;;;;1576111;74;597;-71
2024/02/01 03:01:25;;;;;;;;;;;17.60;45.20;;;;;;1574032;74;695;-71
2024/02/01 03:03:26;;;;;;;;;;;17.60;45.30;;;;;;1567042;74;1124;-71
2024/02/01 03:05:28;;;;;;;;;;;17.60;45.30;;;;;;1569499;74;776;-70
2024/02/01 03:07:30;;;;;;;;;;;17.60;45.20;;;;;;1566515;74;605;-70
2024/02/01 03:09:32;;;;;;;;;;;17.60;45.30;;;;;;1564218;74;685;-68
2024/02/01 03:11:34;;;;;;;;;;;17.60;45.20;;;;;;1571555;74;1961;-70
2024/02/01 03:13:36;;;;;;;;;;;17.60;45.30;;;;;;1572333;74;668;-70
2024/02/01 03:15:38;;;;;;;;;;;17.60;45.20;;;;;;1572640;74;724;-70
2024/02/01 03:17:40;;;;;;;;;;;17.60;45.30;;;;;;1576336;74;596;-71
2024/02/01 03:19:42;;;;;;;;;;;17.60;45.30;;;;;;1579113;74;689;-69
2024/02/01 03:21:44;;;;;;;;;;;17.60;45.20;;;;;;1567664;74;1105;-71
2024/02/01 03:23:47;;;;;;;;;;;17.60;45.30;;;;;;1569704;74;752;-71
2024/02/01 03:25:50;;;;;;;;;;;17.60;45.20;;;;;;1576448;74;769;-70
2024/02/01 03:27:52;;;;;;;;;;;17.70;45.40;;;;;;1571771;74;761;-71
2024/02/01 03:29:54;;;;;;;;;;;17.60;45.30;;;;;;1577276;74;1573;-72
2024/02/01 03:31:56;;;;;;;;;;;17.60;45.30;;;;;;1570826;74;1924;-72
2024/02/01 03:33:58;;;;;;;;;;;17.60;45.30;;;;;;1570340;74;705;-71
2024/02/01 03:36:02;;;;;;;;;;;17.60;45.20;;;;;;1572536;74;669;-69
2024/02/01 03:38:04;;;;;;;;;;;17.60;45.20;;;;;;1567657;74;690;-70
2024/02/01 03:40:07;;;;;;;;;;;17.60;45.30;;;;;;1569721;74;723;-71
2024/02/01 03:42:09;;;;;;;;;;;17.70;45.30;;;;;;1567115;74;1175;-71
2024/02/01 03:44:10;;;;;;;;;;;17.60;45.20;;;;;;1564347;74;717;-71
2024/02/01 03:46:14;;;;;;;;;;;17.60;45.20;;;;;;1564608;74;730;-71
2024/02/01 03:48:17;;;;;;;;;;;17.60;45.30;;;;;;1573048;74;1991;-71
2024/02/01 03:50:19;;;;;;;;;;;17.60;45.30;;;;;;1567873;74;711;-72
2024/02/01 03:52:21;;;;;;;;;;;17.60;45.20;;;;;;1573128;74;1919;-72
2024/02/01 03:54:23;;;;;;;;;;;17.60;45.20;;;;;;1568508;74;751;-70
2024/02/01 03:56:26;;;;;;;;;;;17.60;45.30;;;;;;1571488;74;701;-70
2024/02/01 03:58:28;;;;;;;;;;;17.60;45.20;;;;;;1571380;74;731;-68
2024/02/01 04:00:30;;;;;;;;;;;17.60;45.30;;;;;;1574543;74;750;-71
2024/02/01 04:02:32;;;;;;;;;;;17.60;45.30;;;;;;1573092;74;1176;-71
2024/02/01 04:04:34;;;;;;;;;;;17.70;45.30;;;;;;1572761;74;594;-71
2024/02/01 04:06:36;;;;;;;;;;;17.60;45.20;;;;;;1567866;74;702;-71
2024/02/01 04:08:38;;;;;;;;;;;17.60;45.20;;;;;;1570815;74;645;-71
2024/02/01 04:10:40;;;;;;;;;;;17.60;45.30;;;;;;1571162;74;661;-70
2024/02/01 04:12:42;;;;;;;;;;;17.60;45.20;;;;;;1571402;74;1946;-69
2024/02/01 04:14:44;;;;;;;;;;;17.60;45.20;;;;;;1581516;74;706;-71
2024/02/01 04:16:47;;;;;;;;;;;17.60;45.20;;;;;;1567331;74;590;-71
2024/02/01 04:18:51;;;;;;;;;;;17.60;45.20;;;;;;1563671;74;650;-71
2024/02/01 04:20:52;;;;;;;;;;;17.60;45.20;;;;;;1576799;74;979;-71
2024/02/01 04:22:54;;;;;;;;;;;17.60;45.30;;;;;;1569335;74;1110;-70
2024/02/01 04:24:56;;;;;;;;;;;17.60;45.20;;;;;;1565597;74;791;-68
2024/02/01 04:26:58;;;;;;;;;;;17.60;45.30;;;;;;1570322;74;610;-71
2024/02/01 04:29:00;;;;;;;;;;;17.70;45.40;;;;;;1560820;74;663;-71
2024/02/01 04:31:04;;;;;;;;;;;17.60;45.30;;;;;;1574961;74;1547;-71
2024/02/01 04:33:06;;;;;;;;;;;17.60;45.30;;;;;;1569134;74;1943;-71
2024/02/01 04:35:08;;;;;;;;;;;17.60;45.30;;;;;;1576389;74;744;-71
2024/02/01 04:37:13;;;;;;;;;;;17.60;45.30;;;;;;1571069;74;736;-71
2024/02/01 04:39:15;;;;;;;;;;;17.60;45.20;;;;;;1567643;74;714;-70
2024/02/01 04:41:17;;;;;;;;;;;17.60;45.20;;;;;;1568562;74;656;-71
2024/02/01 04:43:19;;;;;;;;;;;17.60;45.30;;;;;;1563691;74;1115;-71
2024/02/01 04:45:21;;;;;;;;;;;17.60;45.30;;;;;;1570083;74;690;-72
2024/02/01 04:47:23;;;;;;;;;;;17.60;45.20;;;;;;1566229;74;727;-70
2024/02/01 04:49:25;;;;;;;;;;;17.60;45.30;;;;;;1572315;74;789;-71
2024/02/01 04:51:26;;;;;;;;;;;17.60;45.30;;;;;;1566204;74;840;-71
2024/02/01 04:53:28;;;;;;;;;;;17.60;45.30;;;;;;1565390;74;1942;-72
2024/02/01 04:55:30;;;;;;;;;;;17.70;45.40;;;;;;1572248;74;580;-71
2024/02/01 04:57:32;;;;;;;;;;;17.60;45.20;;;;;;1564505;74;714;-71
2024/02/01 04:59:34;;;;;;;;;;;17.60;45.30;;;;;;1573849;74;1000;-72
2024/02/01 05:01:36;;;;;;;;;;;17.60;45.20;;;;;;1573998;74;1088;-71
2024/02/01 05:03:38;;;;;;;;;;;17.60;45.30;;;;;;1569453;74;686;-70
2024/02/01 05:05:45;;;;;;;;;;;17.60;45.30;;;;;;1566398;74;681;-73
2024/02/01 05:07:44;;;;;;;;;;;17.60;45.30;;;;;;1570371;74;1142;-71
2024/02/01 05:09:46;;;;;;;;;;;17.60;45.30;;;;;;1575965;74;666;-69
2024/02/01 05:11:48;;;;;;;;;;;17.60;45.20;;;;;;1563941;74;1104;-70
2024/02/01 05:13:50;;;;;;;;;;;17.60;45.20;;;;;;1569215;74;1934;-69
2024/02/01 05:15:52;;;;;;;;;;;17.60;45.20;;;;;;1565298;74;672;-69
2024/02/01 05:17:54;;;;;;;;;;;17.60;45.20;;;;;;1567672;74;686;-70
2024/02/01 05:19:59;;;;;;;;;;;17.60;45.30;;;;;;1568841;74;705;-71
2024/02/01 05:22:00;;;;;;;;;;;17.60;45.20;;;;;;1571154;74;1219;-71
2024/02/01 05:24:02;;;;;;;;;;;17.60;45.20;;;;;;1568907;74;654;-71
2024/02/01 05:26:04;;;;;;;;;;;17.60;45.20;;;;;;1576578;74;723;-71
2024/02/01 05:28:09;;;;;;;;;;;17.50;45.20;;;;;;1571591;74;683;-72
2024/02/01 05:30:10;;;;;;;;;;;17.60;45.20;;;;;;1569858;74;1575;-71
2024/02/01 05:32:15;;;;;;;;;;;17.60;45.20;;;;;;1567472;74;1168;-72
2024/02/01 05:34:18;;;;;;;;;;;17.60;45.30;;;;;;1575135;74;1170;-68
2024/02/01 05:36:20;;;;;;;;;;;17.60;45.20;;;;;;1568672;74;691;-72
2024/02/01 05:38:22;;;;;;;;;;;17.60;45.20;;;;;;1568867;74;778;-72
2024/02/01 05:40:24;;;;;;;;;;;17.60;45.20;;;;;;1569097;74;542;-73
2024/02/01 05:42:26;;;;;;;;;;;17.60;45.30;;;;;;1562138;74;1140;-73
2024/02/01 05:44:28;;;;;;;;;;;17.60;45.20;;;;;;1564893;74;681;-71
2024/02/01 05:46:30;;;;;;;;;;;17.60;45.30;;;;;;1566677;74;684;-70
2024/02/01 05:48:32;;;;;;;;;;;17.60;45.20;;;;;;1572003;74;661;-73
2024/02/01 05:50:34;;;;;;;;;;;17.60;45.30;;;;;;1571277;74;801;-73
2024/02/01 05:52:36;;;;;;;;;;;17.60;45.30;;;;;;1566091;74;1934;-73
2024/02/01 05:54:38;;;;;;;;;;;17.60;45.20;;;;;;1569909;74;749;-73
2024/02/01 05:56:42;;;;;;;;;;;17.60;45.30;;;;;;1571823;74;750;-72
2024/02/01 05:58:44;;;;;;;;;;;17.50;45.20;;;;;;1561380;74;1141;-72
2024/02/01 06:00:46;;;;;;;;;;;17.60;45.30;;;;;;1572886;74;672;-71
2024/02/01 06:02:49;;;;;;;;;;;17.70;45.40;;;;;;1573365;74;1071;-71
2024/02/01 06:04:50;;;;;;;;;;;17.60;45.30;;;;;;1570914;74;732;-71
2024/02/01 06:06:52;;;;;;;;;;;17.60;45.30;;;;;;1565678;74;729;-72
2024/02/01 06:08:57;;;;;;;;;;;17.60;44.40;;;;;;1570908;74;672;-73
2024/02/01 06:10:58;;;;;;;;;;;17.50;44.80;;;;;;1566295;74;1090;-71
2024/02/01 06:13:00;;;;;;;;;;;17.60;45.00;;;;;;1570979;74;1947;-73
2024/02/01 06:15:02;;;;;;;;;;;17.60;45.10;;;;;;1569331;74;777;-71
2024/02/01 06:17:03;;;;;;;;;;;17.60;45.20;;;;;;1568746;74;679;-72
2024/02/01 06:19:05;;;;;;;;;;;17.60;45.20;;;;;;1567603;74;773;-73
2024/02/01 06:21:08;;;;;;;;;;;17.60;45.20;;;;;;1568619;74;714;-72
2024/02/01 06:23:11;;;;;;;;;;;17.60;45.20;;;;;;1565961;74;1138;-72
2024/02/01 06:25:13;;;;;;;;;;;17.60;45.20;;;;;;1568074;74;652;-74
2024/02/01 06:27:14;;;;;;;;;;;17.60;45.20;;;;;;1564829;74;834;-74
2024/02/01 06:29:16;;;;;;;;;;;17.60;45.20;;;;;;1568846;74;1511;-71
2024/02/01 06:31:18;;;;;;;;;;;17.60;45.20;;;;;;1566247;74;708;-71
2024/02/01 06:33:28;;;;;;;;;;;17.60;45.30;;;;;;1572943;74;1943;-71
2024/02/01 06:35:24;;;;;;;;;;;17.70;45.40;;;;;;1572012;74;1613;-70
2024/02/01 06:37:28;;;;;;;;;;;17.70;45.40;;;;;;1565746;74;631;-72
2024/02/01 06:41:48;;;;;;;;;;;17.70;45.40;;;;;;1569109;74;1185;-69
2024/02/01 06:44:21;;;;;;;;;;;17.80;43.60;;;;;;1558775;74;692;-72
2024/02/01 06:48:10;;;;;;;;;;;17.70;44.00;;;;;;1534777;76;1111;-72
2024/02/01 06:50:57;;;;;;;;;;;17.70;44.50;;;;;;1560506;74;1112;-71
2024/02/01 06:56:48;;;;;;;;;;;17.70;44.90;;;;;;1509491;77;1120;-72
2024/02/01 06:58:49;;;;;;;;;;;17.70;45.00;;;;;;1514070;77;949;-72
2024/02/01 07:01:01;;;;;;;;;;;17.70;45.00;;;;;;1512425;77;692;-73
2024/02/01 07:03:02;;;;;;;;;;;17.70;45.00;;;;;;1562138;74;1116;-74
2024/02/01 07:05:03;;;;;;;;;;;17.60;45.00;;;;;;1559079;74;1113;-71
2024/02/01 07:09:36;;;;;;;;;;;17.70;45.10;;;;;;1572563;74;699;-71
2024/02/01 07:11:33;;;;;;;;;;;17.60;45.00;;;;;;1569249;74;1575;-72
2024/02/01 07:14:24;;;;;;;;;;;17.60;45.10;;;;;;1570583;74;1942;-72
2024/02/01 07:15:43;;;;;;;;;;;17.70;45.20;;;;;;1553404;74;1343;-72
2024/02/01 07:17:47;;;;;;;;;;;17.70;45.20;;;;;;1566557;74;1622;-72
2024/02/01 07:20:01;;;;;;;;;;;17.70;45.20;;;;;;1567995;74;1301;-71
2024/02/01 07:22:10;;;;;;;;;;;17.70;45.20;;;;;;1565245;74;1442;-71
2024/02/01 07:24:37;;;;;;;;;;;17.70;45.20;;;;;;1569749;74;1151;-70
2024/02/01 07:26:34;;;;;;;;;;;17.70;45.20;;;;;;1565774;74;1338;-72
2024/02/01 07:58:23;;;;;;;;;;;17.70;45.40;;;;;;1569973;74;1637;-70
2024/02/01 08:00:31;;;;;;;;;;;17.70;45.40;;;;;;1569561;74;665;-75
2024/02/01 08:02:50;;;;;;;;;;;17.70;45.40;;;;;;1566998;74;1467;-71
2024/02/01 08:09:18;;;;;;;;;;;17.70;45.50;;;;;;1573703;74;1600;-71
2024/02/01 08:11:20;;;;;;;;;;;17.70;45.40;;;;;;1566783;74;726;-70
2024/02/01 08:13:22;;;;;;;;;;;17.60;45.40;;;;;;1569678;74;1926;-71
2024/02/01 08:15:24;;;;;;;;;;;17.70;45.50;;;;;;1574028;74;751;-72
2024/02/01 08:17:26;;;;;;;;;;;17.70;45.50;;;;;;1569979;74;806;-72
2024/02/01 08:19:28;;;;;;;;;;;17.70;45.50;;;;;;1572595;74;736;-72
2024/02/01 08:21:35;;;;;;;;;;;17.60;45.40;;;;;;1567500;74;1143;-69
2024/02/01 08:23:33;;;;;;;;;;;17.70;45.50;;;;;;1566434;74;1653;-71
2024/02/01 08:25:40;;;;;;;;;;;17.60;45.40;;;;;;1571858;74;722;-72
2024/02/01 08:27:49;;;;;;;;;;;17.70;45.50;;;;;;1577459;74;1123;-71
2024/02/01 08:29:42;;;;;;;;;;;17.70;45.50;;;;;;1569538;74;1682;-69
2024/02/01 08:31:50;;;;;;;;;;;17.70;45.50;;;;;;1573623;74;1096;-69
2024/02/01 08:33:48;;;;;;;;;;;17.70;45.50;;;;;;1573248;74;1927;-71
2024/02/01 08:35:50;;;;;;;;;;;17.70;45.50;;;;;;1566051;74;689;-73
2024/02/01 08:37:55;;;;;;;;;;;17.70;45.50;;;;;;1574822;74;764;-71
2024/02/01 08:39:55;;;;;;;;;;;17.70;45.50;;;;;;1570790;74;1666;-71
2024/02/01 08:41:57;;;;;;;;;;;17.70;45.50;;;;;;1569731;74;1142;-71
2024/02/01 08:43:59;;;;;;;;;;;17.70;45.50;;;;;;1563906;74;696;-71
2024/02/01 08:46:01;;;;;;;;;;;17.70;45.50;;;;;;1575643;74;635;-71
2024/02/01 08:48:03;;;;;;;;;;;17.70;45.50;;;;;;1574629;74;707;-71
2024/02/01 08:50:06;;;;;;;;;;;17.70;45.60;;;;;;1572997;74;761;-70
2024/02/01 08:52:12;;;;;;;;;;;17.70;45.00;;;;;;1568853;74;1185;-73
2024/02/01 08:54:11;;;;;;;;;;;17.60;43.80;;;;;;1572644;74;1922;-71
2024/02/01 08:56:13;;;;;;;;;;;17.60;44.70;;;;;;1567513;74;614;-73
2024/02/01 08:58:17;;;;;;;;;;;17.60;44.90;;;;;;1569312;74;657;-71
2024/02/01 09:00:25;;;;;;;;;;;17.60;45.10;;;;;;1572320;74;614;-72
2024/02/01 09:02:25;;;;;;;;;;;17.60;45.20;;;;;;1565043;74;1118;-72
2024/02/01 09:04:27;;;;;;;;;;;17.60;45.40;;;;;;1570989;74;657;-72
2024/02/01 09:06:29;;;;;;;;;;;17.60;45.40;;;;;;1566814;74;722;-72
2024/02/01 09:08:38;;;;;;;;;;;17.70;45.60;;;;;;1571068;74;581;-72
2024/02/01 09:11:00;;;;;;;;;;;17.60;45.50;;;;;;1568426;74;1516;-70
2024/02/01 09:13:02;;;;;;;;;;;17.60;45.50;;;;;;1558796;74;1154;-72
2024/02/01 09:15:05;;;;;;;;;;;17.70;45.60;;;;;;1571174;74;1942;-70
2024/02/01 09:17:07;;;;;;;;;;;17.70;45.70;;;;;;1567881;74;744;-73
2024/02/01 09:19:14;;;;;;;;;;;17.70;45.70;;;;;;1567212;74;761;-71
2024/02/01 09:21:13;;;;;;;;;;;17.70;45.70;;;;;;1566762;74;1167;-71
2024/02/01 09:23:14;;;;;;;;;;;17.70;45.60;;;;;;1569016;74;1123;-71
2024/02/01 09:25:22;;;;;;;;;;;17.70;45.70;;;;;;1573331;74;625;-72
2024/02/01 09:27:24;;;;;;;;;;;17.70;45.70;;;;;;1565136;74;733;-71
2024/02/01 09:29:26;;;;;;;;;;;17.70;45.70;;;;;;1568264;74;1519;-71
2024/02/01 09:31:28;;;;;;;;;;;17.70;45.70;;;;;;1575251;74;737;-73
2024/02/01 09:33:34;;;;;;;;;;;17.70;45.70;;;;;;1570799;74;1106;-71
2024/02/01 09:35:36;;;;;;;;;;;17.70;45.70;;;;;;1559938;74;1559;-69
2024/02/01 09:37:37;;;;;;;;;;;17.70;45.70;;;;;;1567838;74;1123;-72
2024/02/01 09:39:39;;;;;;;;;;;17.70;45.80;;;;;;1574246;74;690;-72
2024/02/01 09:41:41;;;;;;;;;;;17.70;45.80;;;;;;1567655;74;1133;-71
2024/02/01 09:43:44;;;;;;;;;;;17.70;45.20;;;;;;1558844;74;727;-72
2024/02/01 09:45:47;;;;;;;;;;;17.60;45.40;;;;;;1565041;74;719;-71
2024/02/01 09:47:49;;;;;;;;;;;17.60;45.50;;;;;;1571534;74;780;-70
2024/02/01 09:49:52;;;;;;;;;;;17.60;45.60;;;;;;1572327;74;727;-74
2024/02/01 09:51:56;;;;;;;;;;;17.70;44.40;;;;;;1566306;74;1164;-70
2024/02/01 09:53:58;;;;;;;;;;;17.60;45.00;;;;;;1575616;74;1934;-71
2024/02/01 09:56:00;;;;;;;;;;;17.60;45.00;;;;;;1564314;74;728;-73
2024/02/01 09:58:02;;;;;;;;;;;17.50;45.30;;;;;;1571356;74;808;-72
2024/02/01 10:00:05;;;;;;;;;;;17.70;45.50;;;;;;1572234;74;723;-70
2024/02/01 10:02:12;;;;;;;;;;;17.60;45.50;;;;;;1578628;74;1108;-71
2024/02/01 10:04:14;;;;;;;;;;;17.60;45.50;;;;;;1577242;74;731;-72
2024/02/01 10:06:16;;;;;;;;;;;17.60;45.60;;;;;;1569884;74;655;-70
2024/02/01 10:08:18;;;;;;;;;;;17.60;45.60;;;;;;1572119;74;646;-72
2024/02/01 10:10:20;;;;;;;;;;;17.60;45.70;;;;;;1571001;74;711;-71
2024/02/01 10:12:25;;;;;;;;;;;17.70;45.70;;;;;;1566081;74;1129;-70
2024/02/01 10:14:38;;;;;;;;;;;17.70;45.70;;;;;;1571038;74;1934;-71
2024/02/01 10:16:40;;;;;;;;;;;17.70;45.70;;;;;;1576529;74;618;-71
2024/02/01 10:18:43;;;;;;;;;;;17.70;45.80;;;;;;1571429;74;1086;-70
2024/02/01 10:20:49;;;;;;;;;;;17.70;45.80;;;;;;1578154;74;643;-72
2024/02/01 10:22:52;;;;;;;;;;;17.70;45.80;;;;;;1570388;74;1121;-71
2024/02/01 10:24:56;;;;;;;;;;;17.70;45.80;;;;;;1569765;74;1792;-69
2024/02/01 10:27:08;;;;;;;;;;;17.70;45.80;;;;;;1569320;74;1432;-72
2024/02/01 10:29:08;;;;;;;;;;;17.70;45.90;;;;;;1564591;74;1116;-68
2024/02/01 10:31:10;;;;;;;;;;;17.70;45.90;;;;;;1574236;74;801;-73
2024/02/01 10:33:13;;;;;;;;;;;17.70;45.90;;;;;;1576167;74;1101;-72
2024/02/01 10:35:16;;;;;;;;;;;17.70;45.90;;;;;;1574377;74;1939;-72
2024/02/01 10:37:18;;;;;;;;;;;17.70;45.90;;;;;;1567085;74;703;-72
2024/02/01 10:39:21;;;;;;;;;;;17.70;45.90;;;;;;1569021;74;793;-72
2024/02/01 10:41:26;;;;;;;;;;;17.70;45.90;;;;;;1567200;74;724;-72
2024/02/01 10:43:28;;;;;;;;;;;17.70;45.90;;;;;;1563013;74;1365;-71
2024/02/01 10:45:30;;;;;;;;;;;17.70;45.90;;;;;;1572814;74;747;-71
2024/02/01 10:47:34;;;;;;;;;;;17.70;45.80;;;;;;1569027;74;799;-71
2024/02/01 10:49:37;;;;;;;;;;;17.70;45.90;;;;;;1570033;74;1541;-71
2024/02/01 10:51:39;;;;;;;;;;;17.70;45.90;;;;;;1570509;74;1129;-71
2024/02/01 10:53:45;;;;;;;;;;;17.70;46.00;;;;;;1574507;74;744;-74
2024/02/01 10:55:48;;;;;;;;;;;17.70;45.90;;;;;;1563125;74;1915;-72
2024/02/01 10:57:48;;;;;;;;;;;17.70;45.90;;;;;;1569179;74;1527;-71
2024/02/01 10:59:50;;;;;;;;;;;17.70;45.90;;;;;;1571354;74;796;-71
2024/02/01 11:01:52;;;;;;;;;;;17.70;46.00;;;;;;1574239;74;1129;-70
2024/02/01 11:03:55;;;;;;;;;;;17.70;45.90;;;;;;1572538;74;740;-71
2024/02/01 11:05:57;;;;;;;;;;;17.70;46.00;;;;;;1567728;74;1112;-71
2024/02/01 11:07:59;;;;;;;;;;;17.70;46.00;;;;;;1571237;74;667;-72
2024/02/01 11:10:01;;;;;;;;;;;17.70;46.00;;;;;;1569347;74;752;-71
2024/02/01 11:12:03;;;;;;;;;;;17.70;46.00;;;;;;1538933;76;1218;-74
2024/02/01 11:14:07;;;;;;;;;;;17.70;46.00;;;;;;1573960;74;704;-72
2024/02/01 11:16:09;;;;;;;;;;;17.70;46.00;;;;;;1568420;74;1874;-69
2024/02/01 11:18:11;;;;;;;;;;;17.70;46.00;;;;;;1572711;74;717;-70
2024/02/01 11:20:13;;;;;;;;;;;17.70;46.00;;;;;;1573126;74;760;-72
2024/02/01 11:22:16;;;;;;;;;;;17.70;46.00;;;;;;1570533;74;1623;-69
2024/02/01 11:24:22;;;;;;;;;;;17.70;46.00;;;;;;1570217;74;735;-71
2024/02/01 11:26:25;;;;;;;;;;;17.70;46.00;;;;;;1566971;74;1483;-72
2024/02/01 11:28:30;;;;;;;;;;;17.70;46.00;;;;;;1568760;74;802;-72
2024/02/01 11:30:33;;;;;;;;;;;17.70;46.00;;;;;;1572955;74;795;-72
2024/02/01 11:32:35;;;;;;;;;;;17.70;46.00;;;;;;1570439;74;1144;-72
2024/02/01 11:34:38;;;;;;;;;;;17.70;46.00;;;;;;1570474;74;1931;-72
2024/02/01 11:36:39;;;;;;;;;;;17.70;46.00;;;;;;1572544;74;699;-71
2024/02/01 11:38:41;;;;;;;;;;;17.60;45.90;;;;;;1572531;74;734;-72
2024/02/01 11:40:44;;;;;;;;;;;17.70;46.00;;;;;;1568777;74;643;-69
2024/02/01 11:42:46;;;;;;;;;;;17.70;46.00;;;;;;1572540;74;1156;-71
2024/02/01 11:44:48;;;;;;;;;;;17.70;46.00;;;;;;1572663;74;553;-73
2024/02/01 11:46:52;;;;;;;;;;;17.70;46.00;;;;;;1570302;74;566;-71
2024/02/01 11:48:53;;;;;;;;;;;17.70;46.00;;;;;;1573514;74;735;-71
2024/02/01 11:50:59;;;;;;;;;;;17.70;46.00;;;;;;1572303;74;729;-70
2024/02/01 11:53:10;;;;;;;;;;;17.70;46.00;;;;;;1571817;74;1129;-71
2024/02/01 11:55:07;;;;;;;;;;;17.80;46.00;;;;;;1563965;74;1911;-70
2024/02/01 11:57:11;;;;;;;;;;;17.70;46.00;;;;;;1561323;74;542;-71
2024/02/01 11:59:13;;;;;;;;;;;17.70;46.10;;;;;;1578445;74;775;-72
2024/02/01 12:01:15;;;;;;;;;;;17.70;46.10;;;;;;1572442;74;720;-72
2024/02/01 12:03:19;;;;;;;;;;;17.70;46.00;;;;;;1572218;74;1143;-70
2024/02/01 12:05:21;;;;;;;;;;;17.70;46.10;;;;;;1569075;74;712;-72
2024/02/01 12:07:23;;;;;;;;;;;17.80;46.00;;;;;;1570065;74;769;-70
2024/02/01 12:09:25;;;;;;;;;;;17.70;46.10;;;;;;1571978;74;783;-72
2024/02/01 12:11:34;;;;;;;;;;;17.70;46.10;;;;;;1573076;74;691;-72
2024/02/01 12:13:30;;;;;;;;;;;17.70;46.00;;;;;;1571170;74;1481;-71
2024/02/01 12:15:36;;;;;;;;;;;17.80;46.10;;;;;;1565527;74;1903;-69
2024/02/01 12:17:42;;;;;;;;;;;17.70;46.10;;;;;;1572167;74;1573;-71
2024/02/01 12:19:40;;;;;;;;;;;17.70;46.00;;;;;;1569891;74;1497;-72
2024/02/01 12:21:42;;;;;;;;;;;17.70;46.00;;;;;;1572292;74;1163;-71
2024/02/01 12:23:44;;;;;;;;;;;17.70;46.10;;;;;;1574994;74;723;-71
2024/02/01 12:25:47;;;;;;;;;;;17.70;46.00;;;;;;1566482;74;713;-71
2024/02/01 12:27:49;;;;;;;;;;;17.80;46.10;;;;;;1577167;74;708;-72
2024/02/01 12:29:51;;;;;;;;;;;17.70;46.00;;;;;;1565724;74;764;-71
2024/02/01 12:31:53;;;;;;;;;;;17.70;46.10;;;;;;1572792;74;1174;-72
2024/02/01 12:33:55;;;;;;;;;;;17.70;46.10;;;;;;1574828;74;732;-70
2024/02/01 12:35:57;;;;;;;;;;;17.80;46.10;;;;;;1566661;74;1929;-70
2024/02/01 12:38:01;;;;;;;;;;;17.70;46.00;;;;;;1569405;74;719;-71
2024/02/01 12:40:02;;;;;;;;;;;17.80;46.10;;;;;;1568037;74;1624;-70
2024/02/01 12:42:04;;;;;;;;;;;17.70;46.10;;;;;;1568672;74;1181;-70
2024/02/01 12:44:13;;;;;;;;;;;17.70;46.10;;;;;;1567489;74;745;-71
2024/02/01 12:46:12;;;;;;;;;;;17.70;46.10;;;;;;1562221;74;1265;-71
2024/02/01 12:48:15;;;;;;;;;;;17.70;46.10;;;;;;1572404;74;555;-72
2024/02/01 12:50:17;;;;;;;;;;;17.70;46.00;;;;;;1568313;74;688;-70
2024/02/01 12:52:19;;;;;;;;;;;17.70;46.10;;;;;;1576400;74;1237;-70
2024/02/01 12:54:21;;;;;;;;;;;17.70;46.10;;;;;;1567242;74;743;-70
2024/02/01 12:56:26;;;;;;;;;;;17.70;46.10;;;;;;1567223;74;1930;-71